createdAt,value
2018-02-07T00:00:37.410Z,-0.70
2018-02-07T00:03:04.931Z,-0.60
2018-02-07T00:05:32.470Z,-0.70
2018-02-07T00:07:59.984Z,-0.70
2018-02-07T00:10:28.254Z,-0.70
2018-02-07T00:12:56.546Z,-0.70
2018-02-07T00:15:24.055Z,-0.80
2018-02-07T00:17:51.599Z,-0.70
2018-02-07T00:20:19.131Z,-0.80
2018-02-07T00:22:46.635Z,-0.80
2018-02-07T00:25:14.159Z,-0.80
2018-02-07T00:27:41.706Z,-0.80
2018-02-07T00:30:09.228Z,-0.80
2018-02-07T00:32:36.774Z,-0.80
2018-02-07T00:35:04.283Z,-0.80
2018-02-07T00:37:31.816Z,-0.80
2018-02-07T00:40:00.108Z,-0.80
2018-02-07T00:42:27.619Z,-0.90
2018-02-07T00:44:55.166Z,-0.80
2018-02-07T00:47:22.681Z,-0.80
2018-02-07T00:49:50.187Z,-0.80
2018-02-07T00:52:17.737Z,-0.90
2018-02-07T00:54:45.262Z,-0.90
2018-02-07T00:57:12.805Z,-0.90
2018-02-07T00:59:41.073Z,-0.90
2018-02-07T01:02:09.386Z,-0.90
2018-02-07T01:04:36.916Z,-1.00
2018-02-07T01:07:04.434Z,-0.90
2018-02-07T01:09:31.965Z,-1.00
2018-02-07T01:11:59.465Z,-1.00
2018-02-07T01:14:26.991Z,-1.10
2018-02-07T01:16:54.500Z,-1.00
2018-02-07T01:19:22.816Z,-1.10
2018-02-07T01:21:50.329Z,-1.10
2018-02-07T01:24:17.867Z,-1.10
2018-02-07T01:26:45.398Z,-1.10
2018-02-07T01:29:13.680Z,-1.10
2018-02-07T01:31:41.196Z,-1.10
2018-02-07T01:34:09.509Z,-1.10
2018-02-07T01:36:37.020Z,-1.10
2018-02-07T01:39:04.573Z,-1.10
2018-02-07T01:41:32.116Z,-1.10
2018-02-07T01:43:59.658Z,-1.10
2018-02-07T01:46:27.163Z,-1.10
2018-02-07T01:48:55.465Z,-1.20
2018-02-07T01:51:22.997Z,-1.20
2018-02-07T01:53:51.293Z,-1.20
2018-02-07T01:56:18.800Z,-1.20
2018-02-07T01:58:46.338Z,-1.20
2018-02-07T02:01:14.610Z,-1.20
2018-02-07T02:03:42.144Z,-1.20
2018-02-07T02:06:09.650Z,-1.30
2018-02-07T02:08:37.158Z,-1.30
2018-02-07T02:11:04.691Z,-1.30
2018-02-07T02:13:32.198Z,-1.30
2018-02-07T02:15:59.717Z,-1.30
2018-02-07T02:18:27.992Z,-1.30
2018-02-07T02:20:56.279Z,-1.30
2018-02-07T02:23:24.554Z,-1.30
2018-02-07T02:25:52.107Z,-1.30
2018-02-07T02:28:20.407Z,-1.30
2018-02-07T02:30:47.949Z,-1.30
2018-02-07T02:33:16.244Z,-1.30
2018-02-07T02:35:55.632Z,-1.40
2018-02-07T02:38:23.173Z,-1.30
2018-02-07T02:40:50.703Z,-1.40
2018-02-07T02:43:18.229Z,-1.40
2018-02-07T02:45:46.542Z,-1.40
2018-02-07T02:48:14.051Z,-1.40
2018-02-07T02:50:41.552Z,-1.40
2018-02-07T02:53:09.082Z,-1.50
2018-02-07T02:55:37.380Z,-1.50
2018-02-07T02:58:04.914Z,-1.60
2018-02-07T03:00:33.228Z,-1.60
2018-02-07T03:03:00.752Z,-1.60
2018-02-07T03:05:29.041Z,-1.60
2018-02-07T03:07:56.555Z,-1.60
2018-02-07T03:10:24.080Z,-1.60
2018-02-07T03:12:51.605Z,-1.60
2018-02-07T03:15:19.873Z,-1.60
2018-02-07T03:17:48.197Z,-1.60
2018-02-07T03:20:16.474Z,-1.70
2018-02-07T03:22:43.988Z,-1.70
2018-02-07T03:25:12.299Z,-1.70
2018-02-07T03:27:39.805Z,-1.70
2018-02-07T03:30:07.356Z,-1.70
2018-02-07T03:32:34.911Z,-1.70
2018-02-07T03:35:02.429Z,-1.70
2018-02-07T03:37:29.943Z,-1.80
2018-02-07T03:39:57.449Z,-1.80
2018-02-07T03:42:25.011Z,-1.80
2018-02-07T03:44:52.552Z,-1.80
2018-02-07T03:47:20.815Z,-1.80
2018-02-07T03:49:49.116Z,-1.80
2018-02-07T03:52:16.620Z,-1.80
2018-02-07T03:54:44.133Z,-1.80
2018-02-07T03:57:11.679Z,-1.90
2018-02-07T03:59:39.186Z,-1.90
2018-02-07T04:02:06.689Z,-1.90
2018-02-07T04:04:34.217Z,-1.90
2018-02-07T04:07:01.716Z,-1.90
2018-02-07T04:09:29.453Z,-1.90
2018-02-07T04:11:56.991Z,-1.90
2018-02-07T04:14:24.504Z,-1.90
2018-02-07T04:16:52.013Z,-1.90
2018-02-07T04:19:19.532Z,-1.90
2018-02-07T04:21:47.061Z,-1.90
2018-02-07T04:24:15.338Z,-1.90
2018-02-07T04:26:43.634Z,-2.00
2018-02-07T04:29:11.156Z,-2.00
2018-02-07T04:31:39.452Z,-2.00
2018-02-07T04:34:07.751Z,-2.00
2018-02-07T04:36:35.260Z,-2.00
2018-02-07T04:39:02.808Z,-2.00
2018-02-07T04:41:30.339Z,-2.00
2018-02-07T04:43:57.859Z,-2.00
2018-02-07T04:46:26.149Z,-2.00
2018-02-07T04:48:53.666Z,-2.10
2018-02-07T04:51:21.188Z,-2.00
2018-02-07T04:53:48.721Z,-2.00
2018-02-07T04:56:16.229Z,-2.10
2018-02-07T04:58:43.766Z,-2.10
2018-02-07T05:01:11.300Z,-2.10
2018-02-07T05:03:38.806Z,-2.10
2018-02-07T05:06:06.340Z,-2.10
2018-02-07T05:08:33.868Z,-2.10
2018-02-07T05:11:02.175Z,-2.20
2018-02-07T05:13:29.687Z,-2.20
2018-02-07T05:15:57.977Z,-2.20
2018-02-07T05:18:26.270Z,-2.20
2018-02-07T05:20:53.782Z,-2.20
2018-02-07T05:23:21.349Z,-2.20
2018-02-07T05:25:48.863Z,-2.20
2018-02-07T05:28:16.414Z,-2.20
2018-02-07T05:30:43.959Z,-2.20
2018-02-07T05:33:11.469Z,-2.20
2018-02-07T05:35:39.005Z,-2.30
2018-02-07T05:38:06.516Z,-2.30
2018-02-07T05:40:34.797Z,-2.30
2018-02-07T05:43:03.099Z,-2.30
2018-02-07T05:45:30.630Z,-2.30
2018-02-07T05:47:58.933Z,-2.30
2018-02-07T05:50:26.448Z,-2.30
2018-02-07T05:52:53.964Z,-2.30
2018-02-07T05:55:21.512Z,-2.30
2018-02-07T05:57:49.043Z,-2.30
2018-02-07T06:00:17.334Z,-2.30
2018-02-07T06:02:44.843Z,-2.30
2018-02-07T06:05:12.375Z,-2.30
2018-02-07T06:07:39.927Z,-2.40
2018-02-07T06:10:07.425Z,-2.40
2018-02-07T06:12:34.958Z,-2.40
2018-02-07T06:15:02.473Z,-2.30
2018-02-07T06:17:30.791Z,-2.40
2018-02-07T06:19:58.309Z,-2.40
2018-02-07T06:22:25.861Z,-2.40
2018-02-07T06:24:54.167Z,-2.40
2018-02-07T06:27:21.717Z,-2.40
2018-02-07T06:29:49.251Z,-2.40
2018-02-07T06:32:17.519Z,-2.40
2018-02-07T06:34:45.628Z,-2.40
2018-02-07T06:37:13.995Z,-2.40
2018-02-07T06:39:41.518Z,-2.40
2018-02-07T06:42:09.052Z,-2.40
2018-02-07T06:44:36.570Z,-2.40
2018-02-07T06:47:04.094Z,-2.40
2018-02-07T06:49:31.645Z,-2.40
2018-02-07T06:51:59.211Z,-2.50
2018-02-07T06:54:26.788Z,-2.50
2018-02-07T06:56:55.062Z,-2.50
2018-02-07T06:59:23.399Z,-2.50
2018-02-07T07:01:50.936Z,-2.50
2018-02-07T07:04:18.472Z,-2.50
2018-02-07T07:06:46.787Z,-2.40
2018-02-07T07:09:14.353Z,-2.50
2018-02-07T07:11:41.887Z,-2.40
2018-02-07T07:14:09.427Z,-2.40
2018-02-07T07:16:37.736Z,-2.40
2018-02-07T07:19:05.255Z,-2.40
2018-02-07T07:21:33.540Z,-2.40
2018-02-07T07:24:01.106Z,-2.40
2018-02-07T07:26:28.633Z,-2.40
2018-02-07T07:28:56.183Z,-2.30
2018-02-07T07:31:23.713Z,-2.30
2018-02-07T07:33:51.267Z,-2.30
2018-02-07T07:36:18.818Z,-2.20
2018-02-07T07:38:46.419Z,-2.20
2018-02-07T07:41:13.916Z,-2.10
2018-02-07T07:43:41.418Z,-2.00
2018-02-07T07:46:08.962Z,-1.90
2018-02-07T07:48:36.465Z,-1.70
2018-02-07T07:51:03.999Z,-1.60
2018-02-07T07:53:31.523Z,-1.40
2018-02-07T07:55:59.054Z,-1.30
2018-02-07T07:58:27.366Z,-1.20
2018-02-07T08:00:54.880Z,-1.20
2018-02-07T08:03:23.185Z,-1.10
2018-02-07T08:05:52.648Z,-1.10
2018-02-07T08:08:20.204Z,-1.10
2018-02-07T08:10:48.545Z,-1.10
2018-02-07T08:13:16.080Z,-1.10
2018-02-07T08:15:43.611Z,-1.00
2018-02-07T08:18:11.132Z,-0.90
2018-02-07T08:20:38.663Z,-0.80
2018-02-07T08:23:06.190Z,-0.80
2018-02-07T08:25:34.479Z,-0.70
2018-02-07T08:28:02.746Z,-0.60
2018-02-07T08:30:31.047Z,-0.50
2018-02-07T08:32:58.572Z,-0.60
2018-02-07T08:35:26.119Z,-0.40
2018-02-07T08:37:53.636Z,-0.40
2018-02-07T08:40:21.163Z,-0.30
2018-02-07T08:42:49.451Z,0.00
2018-02-07T08:45:17.714Z,0.00
2018-02-07T08:47:46.008Z,0.10
2018-02-07T08:50:13.520Z,0.10
2018-02-07T08:52:41.033Z,0.20
2018-02-07T08:55:08.582Z,0.20
2018-02-07T08:57:36.113Z,0.30
2018-02-07T09:00:03.650Z,0.40
2018-02-07T09:02:31.184Z,0.40
2018-02-07T09:04:58.725Z,0.50
2018-02-07T09:07:26.258Z,0.50
2018-02-07T09:09:54.527Z,0.50
2018-02-07T09:12:22.827Z,0.50
2018-02-07T09:14:50.335Z,0.50
2018-02-07T09:17:17.886Z,0.50
2018-02-07T09:19:45.386Z,0.40
2018-02-07T09:22:13.717Z,0.60
2018-02-07T09:24:41.227Z,0.70
2018-02-07T09:27:09.480Z,0.90
2018-02-07T09:29:37.004Z,0.90
2018-02-07T09:32:04.540Z,1.10
2018-02-07T09:34:32.083Z,1.30
2018-02-07T09:36:59.600Z,1.40
2018-02-07T09:39:27.102Z,1.60
2018-02-07T09:41:55.404Z,1.80
2018-02-07T09:44:22.916Z,1.70
2018-02-07T09:46:51.211Z,1.80
2018-02-07T09:49:19.807Z,1.70
2018-02-07T09:51:47.310Z,1.70
2018-02-07T09:54:14.871Z,1.70
2018-02-07T09:56:42.438Z,1.80
2018-02-07T09:59:09.951Z,1.70
2018-02-07T10:01:37.458Z,1.70
2018-02-07T10:04:04.982Z,1.90
2018-02-07T10:06:32.513Z,1.90
2018-02-07T10:09:00.024Z,1.80
2018-02-07T10:11:27.567Z,1.50
2018-02-07T10:13:55.075Z,1.60
2018-02-07T10:16:23.389Z,1.90
2018-02-07T10:18:50.890Z,1.90
2018-02-07T10:21:18.411Z,1.90
2018-02-07T10:23:45.916Z,2.10
2018-02-07T10:26:14.279Z,2.10
2018-02-07T10:28:41.893Z,2.10
2018-02-07T10:31:09.462Z,2.00
2018-02-07T10:33:36.959Z,2.00
2018-02-07T10:36:04.482Z,2.00
2018-02-07T10:38:31.973Z,2.10
2018-02-07T10:40:59.508Z,2.20
2018-02-07T10:43:27.012Z,2.20
2018-02-07T10:45:55.329Z,2.40
2018-02-07T10:48:22.831Z,2.40
2018-02-07T10:50:50.350Z,2.50
2018-02-07T10:53:17.888Z,2.50
2018-02-07T10:55:45.409Z,3.00
2018-02-07T10:58:13.703Z,3.60
2018-02-07T11:00:42.010Z,4.00
2018-02-07T11:03:10.309Z,4.20
2018-02-07T11:05:37.850Z,4.20
2018-02-07T11:08:05.388Z,3.40
2018-02-07T11:10:32.937Z,3.40
2018-02-07T11:13:01.239Z,4.70
2018-02-07T11:15:28.763Z,4.70
2018-02-07T11:17:57.043Z,5.00
2018-02-07T11:20:24.543Z,5.00
2018-02-07T11:22:52.090Z,4.40
2018-02-07T11:25:19.651Z,4.50
2018-02-07T11:27:47.185Z,4.50
2018-02-07T11:30:14.734Z,4.50
2018-02-07T11:32:43.027Z,4.20
2018-02-07T11:35:10.567Z,4.10
2018-02-07T11:37:38.872Z,4.20
2018-02-07T11:40:06.392Z,4.20
2018-02-07T11:42:34.688Z,4.60
2018-02-07T11:45:02.981Z,4.80
2018-02-07T11:47:30.570Z,4.80
2018-02-07T11:49:58.064Z,4.90
2018-02-07T11:52:25.579Z,5.10
2018-02-07T11:54:53.092Z,5.00
2018-02-07T11:57:20.648Z,5.30
2018-02-07T11:59:48.186Z,6.00
2018-02-07T12:02:15.742Z,6.40
2018-02-07T12:04:43.279Z,6.80
2018-02-07T12:07:10.808Z,7.00
2018-02-07T12:09:38.362Z,7.10
2018-02-07T12:12:05.870Z,7.50
2018-02-07T12:14:33.372Z,7.20
2018-02-07T12:17:00.900Z,7.20
2018-02-07T12:19:28.400Z,7.50
2018-02-07T12:21:55.990Z,7.50
2018-02-07T12:24:23.495Z,7.60
2018-02-07T12:26:51.767Z,7.10
2018-02-07T12:29:20.059Z,7.60
2018-02-07T12:31:47.558Z,7.50
2018-02-07T12:34:18.039Z,7.40
2018-02-07T12:36:45.576Z,7.70
2018-02-07T12:39:13.103Z,8.30
2018-02-07T12:41:40.621Z,8.60
2018-02-07T12:44:23.887Z,8.30
2018-02-07T12:46:51.405Z,8.00
2018-02-07T12:49:18.940Z,7.80
2018-02-07T12:51:46.496Z,7.10
2018-02-07T12:54:14.007Z,7.00
2018-02-07T12:56:41.527Z,7.10
2018-02-07T12:59:09.840Z,5.90
2018-02-07T13:01:38.128Z,5.60
2018-02-07T13:04:05.659Z,5.60
2018-02-07T13:06:33.192Z,5.70
2018-02-07T13:09:01.506Z,5.90
2018-02-07T13:11:29.038Z,5.80
2018-02-07T13:13:57.358Z,5.20
2018-02-07T13:16:24.879Z,5.20
2018-02-07T13:18:53.166Z,4.80
2018-02-07T13:21:20.704Z,4.70
2018-02-07T13:23:49.027Z,4.60
2018-02-07T13:26:16.594Z,4.50
2018-02-07T13:28:44.135Z,4.30
2018-02-07T13:31:11.671Z,4.30
2018-02-07T13:33:39.955Z,4.00
2018-02-07T13:36:07.485Z,4.00
2018-02-07T13:38:34.987Z,3.90
2018-02-07T13:41:02.510Z,4.30
2018-02-07T13:43:30.817Z,4.80
2018-02-07T13:45:58.380Z,4.70
2018-02-07T13:48:25.921Z,4.90
2018-02-07T13:50:53.429Z,5.20
2018-02-07T13:53:20.960Z,5.30
2018-02-07T13:55:49.259Z,5.10
2018-02-07T13:58:16.790Z,5.10
2018-02-07T14:00:49.939Z,5.30
2018-02-07T14:03:17.496Z,5.20
2018-02-07T14:05:44.995Z,4.90
2018-02-07T14:08:12.498Z,5.00
2018-02-07T14:10:40.024Z,5.00
2018-02-07T14:13:07.522Z,4.90
2018-02-07T14:15:35.070Z,4.90
2018-02-07T14:18:02.593Z,5.10
2018-02-07T14:20:30.094Z,5.10
2018-02-07T14:22:57.663Z,5.20
2018-02-07T14:25:25.950Z,5.40
2018-02-07T14:27:54.228Z,5.30
2018-02-07T14:30:22.526Z,5.20
2018-02-07T14:32:50.083Z,5.20
2018-02-07T14:35:17.734Z,5.10
2018-02-07T14:40:44.494Z,4.60
2018-02-07T14:43:12.014Z,4.60
2018-02-07T14:45:39.547Z,4.50
2018-02-07T14:48:07.070Z,4.50
2018-02-07T14:50:35.400Z,4.60
2018-02-07T14:53:02.908Z,4.60
2018-02-07T14:55:30.426Z,4.70
2018-02-07T14:57:58.005Z,4.70
2018-02-07T15:00:26.282Z,4.80
2018-02-07T15:02:54.597Z,4.90
2018-02-07T15:05:22.104Z,4.80
2018-02-07T15:07:49.629Z,4.80
2018-02-07T15:10:17.169Z,4.80
2018-02-07T15:12:44.729Z,5.00
2018-02-07T15:15:12.306Z,5.00
2018-02-07T15:17:39.808Z,4.80
2018-02-07T15:20:08.156Z,4.80
2018-02-07T15:22:35.744Z,4.80
2018-02-07T15:27:39.167Z,4.80
2018-02-07T15:30:07.509Z,4.90
2018-02-07T15:32:35.088Z,4.90
2018-02-07T15:35:03.491Z,4.80
2018-02-07T15:37:31.801Z,4.70
2018-02-07T15:39:59.456Z,4.70
2018-02-07T15:42:26.978Z,4.80
2018-02-07T15:44:55.566Z,4.60
2018-02-07T15:47:23.883Z,4.60
2018-02-07T15:49:51.498Z,4.60
2018-02-07T15:52:19.866Z,4.30
2018-02-07T15:54:47.455Z,4.30
2018-02-07T15:57:15.743Z,4.30
2018-02-07T15:59:43.267Z,4.30
2018-02-07T16:02:10.910Z,4.20
2018-02-07T16:04:38.438Z,4.10
2018-02-07T16:07:05.987Z,4.40
2018-02-07T16:09:33.507Z,4.20
2018-02-07T16:12:01.848Z,4.00
2018-02-07T16:14:29.414Z,4.00
2018-02-07T16:16:56.958Z,4.00
2018-02-07T16:19:24.474Z,4.00
2018-02-07T16:21:52.770Z,3.80
2018-02-07T16:24:20.403Z,3.80
2018-02-07T16:26:48.934Z,3.70
2018-02-07T16:29:16.470Z,3.70
2018-02-07T16:31:44.007Z,3.60
2018-02-07T16:34:12.266Z,3.50
2018-02-07T16:36:39.844Z,3.50
2018-02-07T16:39:08.164Z,3.50
2018-02-07T16:41:35.686Z,3.50
2018-02-07T16:44:03.239Z,3.50
2018-02-07T16:46:31.543Z,3.40
2018-02-07T16:48:59.065Z,3.40
2018-02-07T16:51:26.600Z,3.30
2018-02-07T16:53:54.123Z,3.30
2018-02-07T16:56:21.643Z,3.30
2018-02-07T16:58:49.940Z,3.10
2018-02-07T17:01:18.256Z,3.20
2018-02-07T17:03:45.770Z,3.10
2018-02-07T17:06:13.340Z,3.20
2018-02-07T17:08:40.874Z,3.20
2018-02-07T17:11:08.451Z,3.20
2018-02-07T17:13:36.727Z,3.30
2018-02-07T17:16:04.277Z,3.30
2018-02-07T17:18:32.561Z,3.30
2018-02-07T17:21:00.090Z,3.30
2018-02-07T17:23:27.614Z,3.30
2018-02-07T17:25:56.031Z,3.30
2018-02-07T17:28:23.562Z,3.20
2018-02-07T17:30:51.095Z,3.20
2018-02-07T17:33:18.614Z,3.20
2018-02-07T17:35:46.160Z,3.20
2018-02-07T17:38:14.941Z,3.20
2018-02-07T17:40:42.453Z,3.10
2018-02-07T17:43:09.968Z,3.20
2018-02-07T17:45:38.369Z,3.10
2018-02-07T17:48:06.656Z,3.10
2018-02-07T17:50:34.988Z,3.00
2018-02-07T17:53:02.517Z,3.10
2018-02-07T17:55:30.097Z,3.00
2018-02-07T17:57:57.669Z,3.10
2018-02-07T18:00:25.220Z,3.10
2018-02-07T18:02:52.827Z,3.10
2018-02-07T18:05:20.581Z,3.10
2018-02-07T18:07:48.170Z,3.10
2018-02-07T18:10:31.493Z,3.10
2018-02-07T18:12:59.077Z,3.10
2018-02-07T18:15:27.657Z,3.00
2018-02-07T18:17:55.294Z,3.10
2018-02-07T18:20:22.844Z,3.10
2018-02-07T18:22:51.171Z,3.00
2018-02-07T18:25:18.777Z,3.00
2018-02-07T18:27:47.218Z,3.00
2018-02-07T18:30:16.880Z,3.00
2018-02-07T18:32:44.821Z,3.00
2018-02-07T18:35:12.421Z,3.00
2018-02-07T18:37:39.998Z,3.00
2018-02-07T18:40:07.536Z,3.00
2018-02-07T18:42:35.138Z,3.00
2018-02-07T18:45:03.714Z,3.00
2018-02-07T18:47:32.442Z,2.90
2018-02-07T18:50:00.799Z,2.80
2018-02-07T18:52:28.327Z,2.80
2018-02-07T18:54:55.880Z,2.80
2018-02-07T18:57:23.616Z,2.70
2018-02-07T18:59:51.349Z,2.60
2018-02-07T19:02:19.021Z,2.60
2018-02-07T19:04:47.414Z,2.60
2018-02-07T19:07:15.714Z,2.60
2018-02-07T19:09:43.248Z,2.60
2018-02-07T19:12:12.197Z,2.60
2018-02-07T19:14:40.250Z,2.60
2018-02-07T19:17:07.834Z,2.50
2018-02-07T19:22:15.511Z,2.50
2018-02-07T19:24:43.011Z,2.40
2018-02-07T19:27:10.780Z,2.50
2018-02-07T19:29:38.439Z,2.40
2018-02-07T19:32:05.975Z,2.50
2018-02-07T19:34:33.545Z,2.50
2018-02-07T19:37:01.104Z,2.40
2018-02-07T19:39:29.728Z,2.40
2018-02-07T19:41:57.353Z,2.40
2018-02-07T19:44:24.868Z,2.40
2018-02-07T19:46:52.430Z,2.40
2018-02-07T19:49:19.975Z,2.40
2018-02-07T19:51:48.364Z,2.30
2018-02-07T19:54:15.962Z,2.30
2018-02-07T19:56:44.284Z,2.40
2018-02-07T19:59:12.604Z,2.40
2018-02-07T20:01:40.133Z,2.30
2018-02-07T20:04:08.086Z,2.40
2018-02-07T20:06:35.671Z,2.30
2018-02-07T20:09:03.225Z,2.20
2018-02-07T20:11:30.747Z,2.20
2018-02-07T20:13:58.401Z,2.10
2018-02-07T20:16:26.902Z,2.00
2018-02-07T20:18:55.221Z,1.90
2018-02-07T20:21:22.757Z,1.90
2018-02-07T20:23:50.291Z,1.90
2018-02-07T20:26:18.644Z,1.80
2018-02-07T20:28:46.233Z,1.80
2018-02-07T20:31:14.531Z,1.90
2018-02-07T20:33:42.118Z,1.90
2018-02-07T20:36:09.648Z,1.80
2018-02-07T20:38:37.337Z,1.80
2018-02-07T20:41:04.881Z,1.90
2018-02-07T20:43:32.423Z,2.00
2018-02-07T20:46:00.706Z,2.00
2018-02-07T20:48:28.295Z,2.00
2018-02-07T20:50:55.832Z,2.00
2018-02-07T20:53:23.377Z,1.90
2018-02-07T20:55:51.677Z,2.00
2018-02-07T20:58:19.212Z,2.00
2018-02-07T21:00:47.599Z,1.90
2018-02-07T21:03:15.123Z,1.90
2018-02-07T21:05:42.685Z,1.90
2018-02-07T21:08:10.243Z,1.80
2018-02-07T21:10:37.806Z,1.70
2018-02-07T21:13:06.169Z,1.70
2018-02-07T21:15:34.651Z,1.70
2018-02-07T21:18:02.237Z,1.80
2018-02-07T21:20:30.685Z,1.90
2018-02-07T21:22:58.284Z,1.90
2018-02-07T21:25:25.881Z,1.80
2018-02-07T21:27:53.409Z,1.70
2018-02-07T21:30:21.243Z,1.70
2018-02-07T21:32:48.798Z,1.70
2018-02-07T21:35:16.299Z,1.70
2018-02-07T21:37:44.062Z,1.70
2018-02-07T21:40:11.851Z,1.80
2018-02-07T21:42:39.437Z,1.80
2018-02-07T21:45:06.961Z,1.80
2018-02-07T21:47:34.495Z,1.80
2018-02-07T21:50:02.822Z,1.80
2018-02-07T21:52:30.345Z,1.80
2018-02-07T21:54:57.863Z,1.90
2018-02-07T21:57:26.183Z,1.90
2018-02-07T21:59:53.701Z,1.90
2018-02-07T22:02:23.136Z,1.90
2018-02-07T22:04:50.655Z,2.10
2018-02-07T22:07:18.181Z,1.90
2018-02-07T22:09:45.767Z,1.90
2018-02-07T22:12:13.296Z,1.90
2018-02-07T22:14:40.837Z,2.00
2018-02-07T22:17:08.400Z,2.00
2018-02-07T22:19:35.912Z,1.90
2018-02-07T22:22:03.404Z,1.80
2018-02-07T22:24:30.946Z,1.80
2018-02-07T22:26:59.256Z,1.90
2018-02-07T22:29:26.759Z,1.90
2018-02-07T22:31:54.283Z,1.80
2018-02-07T22:34:21.934Z,1.80
2018-02-07T22:36:49.449Z,1.90
2018-02-07T22:39:16.965Z,1.90
2018-02-07T22:41:44.484Z,2.00
2018-02-07T22:44:12.748Z,1.90
2018-02-07T22:46:41.064Z,1.80
2018-02-07T22:49:08.573Z,1.70
2018-02-07T22:51:36.112Z,1.70
2018-02-07T22:54:03.626Z,1.70
2018-02-07T22:56:31.168Z,1.70
2018-02-07T22:58:59.996Z,1.70
2018-02-07T23:01:27.524Z,1.70
2018-02-07T23:03:55.824Z,1.80
2018-02-07T23:06:23.342Z,1.80
2018-02-07T23:08:51.644Z,1.80
2018-02-07T23:11:19.166Z,1.80
2018-02-07T23:13:46.722Z,1.70
2018-02-07T23:16:14.267Z,1.80
2018-02-07T23:18:41.799Z,1.70
2018-02-07T23:21:09.321Z,1.80
2018-02-07T23:23:37.593Z,1.70
2018-02-07T23:26:05.988Z,1.70
2018-02-07T23:28:33.491Z,1.70
2018-02-07T23:31:00.992Z,1.70
2018-02-07T23:33:29.278Z,1.70
2018-02-07T23:35:57.543Z,1.70
2018-02-07T23:38:25.844Z,1.70
2018-02-07T23:40:53.336Z,1.70
2018-02-07T23:43:20.848Z,1.70
2018-02-07T23:45:49.128Z,1.70
2018-02-07T23:48:16.651Z,1.70
2018-02-07T23:50:44.191Z,1.70
2018-02-07T23:53:11.713Z,1.70
2018-02-07T23:55:39.245Z,1.70
2018-02-07T23:58:07.507Z,1.70
